Time;durP1;ratioP1;P1;durP2;ratioP2;P2;SDS_P1;SDS_P2;PMS_P1;PMS_P2;Temp;Humidity;BMP_temperature;BMP_pressure;BME280_temperature;BME280_humidity;BME280_pressure;Samples;Min_cycle;Max_cycle;Signal;HPM_P1;HPM_P2
2023/03/22 00:02:03;;;;;;;71.30;38.20;;;;;;;9.49;97.23;100263.15;213680;1292;139072;-89
2023/03/22 00:07:04;;;;;;;69.70;38.50;;;;;;;9.48;97.15;100260.70;214012;1288;98685;-88
2023/03/22 00:12:05;;;;;;;69.40;36.40;;;;;;;9.49;97.19;100262.45;213704;1288;139464;-91
2023/03/22 00:17:05;;;;;;;74.60;39.30;;;;;;;9.48;97.44;100261.18;214109;1289;138824;-90
2023/03/22 00:22:07;;;;;;;75.60;37.20;;;;;;;9.47;97.54;100251.44;213614;1291;139723;-90
2023/03/22 00:27:07;;;;;;;72.30;37.20;;;;;;;9.47;97.63;100245.15;214126;1291;139099;-87
2023/03/22 00:32:08;;;;;;;76.30;37.90;;;;;;;9.45;97.72;100243.40;213491;1288;140599;-90
2023/03/22 00:37:08;;;;;;;67.50;36.30;;;;;;;9.45;97.83;100234.15;214076;1291;97996;-90
2023/03/22 00:42:09;;;;;;;63.10;35.50;;;;;;;9.45;97.81;100227.23;213309;1291;139338;-89
2023/03/22 00:47:11;;;;;;;68.60;34.50;;;;;;;9.43;98.07;100217.15;214036;1291;140160;-89
2023/03/22 00:52:11;;;;;;;72.70;36.60;;;;;;;9.45;98.12;100215.38;213362;1289;139040;-90
2023/03/22 00:57:13;;;;;;;73.90;37.20;;;;;;;9.46;98.06;100204.41;213993;1292;139079;-88
2023/03/22 01:02:14;;;;;;;73.20;36.20;;;;;;;9.47;98.03;100201.36;213512;1289;139259;-88
2023/03/22 01:07:17;;;;;;;65.70;34.20;;;;;;;9.48;98.10;100209.14;213907;1289;97884;-89
2023/03/22 01:12:19;;;;;;;75.00;37.30;;;;;;;9.50;98.19;100205.95;213526;1291;139801;-90
2023/03/22 01:17:19;;;;;;;70.60;38.30;;;;;;;9.51;97.94;100203.45;214093;1294;139370;-89
2023/03/22 01:22:20;;;;;;;71.70;37.70;;;;;;;9.51;98.06;100202.59;213369;1289;141136;-90
2023/03/22 01:27:20;;;;;;;77.40;38.10;;;;;;;9.51;98.55;100195.29;213845;1288;139046;-89
2023/03/22 01:32:21;;;;;;;79.10;39.70;;;;;;;9.50;98.85;100179.96;213450;1294;138927;-89
2023/03/22 01:37:24;;;;;;;70.00;35.80;;;;;;;9.48;99.30;100171.32;214080;1292;97896;-89
2023/03/22 01:42:25;;;;;;;68.80;34.70;;;;;;;9.47;99.59;100162.52;213458;1292;138824;-87
2023/03/22 01:47:26;;;;;;;69.90;36.10;;;;;;;9.46;99.71;100154.11;213856;1288;139286;-89
2023/03/22 01:52:26;;;;;;;65.00;35.00;;;;;;;9.46;99.89;100146.17;213226;1293;139025;-89
2023/03/22 01:57:27;;;;;;;69.60;38.00;;;;;;;9.45;99.77;100142.95;214003;1293;140088;-90
2023/03/22 02:02:29;;;;;;;69.50;36.00;;;;;;;9.44;99.98;100141.92;213458;1289;139730;-88
2023/03/22 02:07:30;;;;;;;64.00;34.90;;;;;;;9.44;100.00;100135.33;214027;1294;139141;-87
2023/03/22 02:13:08;;;;;;;66.50;34.70;;;;;;;9.42;100.00;100131.62;213730;1289;138480;-88
2023/03/22 02:18:31;;;;;;;64.40;34.50;;;;;;;9.40;100.00;100128.14;214054;1288;138936;-88
2023/03/22 02:23:49;;;;;;;65.30;35.30;;;;;;;9.38;100.00;100126.63;213557;1289;139668;-87
2023/03/22 02:28:59;;;;;;;62.40;32.60;;;;;;;9.33;100.00;100121.55;213412;1289;140163;-87
2023/03/22 02:34:31;;;;;;;67.10;35.30;;;;;;;9.31;100.00;100119.33;213885;1290;140176;-87
2023/03/22 02:39:59;;;;;;;65.80;33.50;;;;;;;9.25;100.00;100125.93;213210;1289;139498;-87
2023/03/22 02:45:14;;;;;;;67.70;35.00;;;;;;;9.22;100.00;100125.82;213585;1294;139112;-88
2023/03/22 02:50:27;;;;;;;67.70;35.40;;;;;;;9.20;100.00;100120.22;213231;1294;140169;-87
2023/03/22 02:55:30;;;;;;;72.30;36.20;;;;;;;9.16;100.00;100122.77;213856;1294;105126;-87
2023/03/22 03:00:33;;;;;;;69.10;35.20;;;;;;;9.12;100.00;100117.85;213609;1289;139203;-87
2023/03/22 03:05:34;;;;;;;70.80;36.40;;;;;;;9.09;100.00;100124.33;214359;1289;138821;-87
2023/03/22 03:10:35;;;;;;;76.50;37.00;;;;;;;9.04;100.00;100127.02;213750;1289;139093;-86
2023/03/22 03:15:41;;;;;;;78.60;39.40;;;;;;;9.00;100.00;100128.06;214083;1294;138990;-85
2023/03/22 03:21:17;;;;;;;74.60;37.10;;;;;;;8.96;100.00;100129.81;213272;1292;140045;-86
2023/03/22 03:26:35;;;;;;;68.20;35.60;;;;;;;8.94;100.00;100130.73;213662;1294;139168;-85
2023/03/22 03:32:01;;;;;;;63.30;33.60;;;;;;;8.92;100.00;100124.90;213175;1294;140474;-85
2023/03/22 03:37:18;;;;;;;70.80;37.30;;;;;;;8.91;100.00;100122.38;213803;1289;98186;-85
2023/03/22 03:42:22;;;;;;;69.00;35.70;;;;;;;8.90;100.00;100121.42;213260;1289;139556;-85
2023/03/22 03:47:24;;;;;;;69.20;34.30;;;;;;;8.89;100.00;100120.23;214041;1291;139229;-85
2023/03/22 03:52:25;;;;;;;80.30;38.30;;;;;;;8.88;100.00;100116.45;213362;1289;139473;-87
2023/03/22 03:57:26;;;;;;;73.40;37.10;;;;;;;8.87;100.00;100115.44;213784;1292;139208;-85
2023/03/22 04:02:26;;;;;;;69.90;35.90;;;;;;;8.87;100.00;100113.09;213430;1294;140619;-86
2023/03/22 04:07:26;;;;;;;75.30;37.60;;;;;;;8.87;100.00;100104.29;213994;1292;99387;-87
2023/03/22 04:12:27;;;;;;;70.30;35.40;;;;;;;8.86;100.00;100104.68;213260;1289;230091;-86
2023/03/22 04:17:28;;;;;;;70.00;35.10;;;;;;;8.84;100.00;100097.99;213786;1289;140150;-86
2023/03/22 04:22:33;;;;;;;69.20;34.90;;;;;;;8.84;100.00;100105.13;213203;1289;139380;-84
2023/03/22 04:27:34;;;;;;;76.90;38.60;;;;;;;8.84;100.00;100107.55;213987;1295;139808;-85
2023/03/22 04:32:34;;;;;;;74.20;37.80;;;;;;;8.84;100.00;100107.23;213419;1292;139468;-83
2023/03/22 04:37:35;;;;;;;73.80;36.90;;;;;;;8.83;100.00;100101.82;213889;1294;139174;-84
2023/03/22 04:42:35;;;;;;;70.80;37.00;;;;;;;8.83;100.00;100100.25;213479;1288;139344;-83
2023/03/22 04:47:36;;;;;;;72.30;36.70;;;;;;;8.83;100.00;100098.84;213785;1291;138979;-83
2023/03/22 04:52:36;;;;;;;77.40;37.60;;;;;;;8.83;100.00;100097.27;213350;1294;139731;-84
2023/03/22 04:57:37;;;;;;;72.70;37.10;;;;;;;8.84;100.00;100092.35;213722;1289;139659;-85
2023/03/22 05:02:39;;;;;;;72.40;37.40;;;;;;;8.87;100.00;100098.80;213375;1292;140778;-84
2023/03/22 05:07:40;;;;;;;76.40;37.60;;;;;;;8.88;100.00;100096.54;213695;1295;139114;-85
2023/03/22 05:12:40;;;;;;;78.90;40.90;;;;;;;8.89;100.00;100099.14;213698;1291;139421;-84
2023/03/22 05:17:41;;;;;;;77.20;38.90;;;;;;;8.91;100.00;100099.56;214398;1294;139760;-84
2023/03/22 05:22:41;;;;;;;81.40;40.60;;;;;;;8.91;100.00;100094.39;213505;1289;139314;-84
2023/03/22 05:27:42;;;;;;;77.30;37.30;;;;;;;8.92;100.00;100095.11;213940;1288;139714;-84
2023/03/22 05:32:42;;;;;;;71.10;35.00;;;;;;;8.94;100.00;100095.21;213360;1289;139810;-85
2023/03/22 05:37:43;;;;;;;68.50;34.00;;;;;;;8.94;100.00;100091.77;213900;1294;139209;-85
2023/03/22 05:42:44;;;;;;;70.00;34.50;;;;;;;8.96;100.00;100098.14;213319;1294;139254;-84
2023/03/22 05:47:45;;;;;;;74.40;36.60;;;;;;;8.95;100.00;100105.34;213707;1290;139292;-84
2023/03/22 05:52:45;;;;;;;76.80;37.30;;;;;;;8.94;100.00;100108.54;213290;1289;139181;-85
2023/03/22 05:57:46;;;;;;;81.70;37.70;;;;;;;8.93;100.00;100110.34;213729;1295;139064;-83
2023/03/22 06:02:48;;;;;;;79.50;37.90;;;;;;;8.94;100.00;100116.38;213446;1289;139197;-84
2023/03/22 06:07:49;;;;;;;80.80;37.40;;;;;;;8.96;100.00;100117.02;213821;1289;139611;-84
2023/03/22 06:12:49;;;;;;;89.10;40.20;;;;;;;9.00;100.00;100116.30;213507;1294;139414;-84
2023/03/22 06:17:50;;;;;;;71.40;35.20;;;;;;;9.05;100.00;100126.02;213822;1289;139034;-83
2023/03/22 06:22:50;;;;;;;59.30;30.80;;;;;;;9.11;100.00;100119.73;213395;1293;139482;-83
2023/03/22 06:27:51;;;;;;;64.90;33.50;;;;;;;9.17;100.00;100116.03;213852;1289;139156;-83
2023/03/22 06:32:51;;;;;;;68.90;36.20;;;;;;;9.24;100.00;100116.59;213291;1294;139719;-84
2023/03/22 06:37:51;;;;;;;80.10;42.10;;;;;;;9.31;100.00;100116.97;213963;1292;139050;-84
2023/03/22 06:42:53;;;;;;;69.30;37.00;;;;;;;9.38;100.00;100119.64;213663;1294;139626;-83
2023/03/22 06:47:53;;;;;;;68.70;34.40;;;;;;;9.45;100.00;100125.98;213990;1289;139088;-83
2023/03/22 06:52:54;;;;;;;59.90;30.00;;;;;;;9.52;100.00;100123.80;214093;1292;139072;-83
2023/03/22 06:57:55;;;;;;;60.50;32.70;;;;;;;9.60;100.00;100122.14;214547;1294;139983;-83
2023/03/22 07:02:55;;;;;;;64.00;32.80;;;;;;;9.68;100.00;100124.11;213968;1291;140404;-83
2023/03/22 07:07:56;;;;;;;58.20;30.90;;;;;;;9.76;100.00;100122.39;214084;1288;139022;-83
2023/03/22 07:12:57;;;;;;;53.40;29.00;;;;;;;9.82;100.00;100115.84;213682;1292;138989;-83
2023/03/22 07:17:59;;;;;;;55.50;28.20;;;;;;;9.90;100.00;100117.95;214153;1293;139481;-83
2023/03/22 07:23:00;;;;;;;56.60;31.10;;;;;;;9.96;100.00;100118.80;213567;1292;139790;-84
2023/03/22 07:28:00;;;;;;;59.20;40.50;;;;;;;10.03;100.00;100119.42;213886;1293;139434;-83
2023/03/22 07:33:01;;;;;;;54.10;30.00;;;;;;;10.13;100.00;100106.40;213559;1289;139946;-84
2023/03/22 07:38:02;;;;;;;44.90;26.40;;;;;;;10.20;100.00;100098.52;214062;1295;139624;-83
2023/03/22 07:43:02;;;;;;;52.40;29.30;;;;;;;10.31;100.00;100092.45;213579;1290;139248;-83
2023/03/22 07:48:03;;;;;;;48.30;28.20;;;;;;;10.43;100.00;100094.58;214056;1288;140528;-85
2023/03/22 07:53:03;;;;;;;49.70;27.80;;;;;;;10.53;100.00;100097.55;213622;1294;140610;-85
2023/03/22 07:58:05;;;;;;;47.20;28.20;;;;;;;10.68;100.00;100105.34;213970;1289;139489;-86
2023/03/22 08:03:05;;;;;;;48.70;27.40;;;;;;;10.82;100.00;100105.48;213442;1294;140334;-84
2023/03/22 08:08:06;;;;;;;42.00;27.50;;;;;;;10.96;100.00;100103.36;213978;1292;139868;-85
2023/03/22 08:13:06;;;;;;;43.20;25.60;;;;;;;11.11;100.00;100096.56;213762;1292;139755;-84
2023/03/22 08:18:07;;;;;;;40.60;24.30;;;;;;;11.20;100.00;100096.91;214165;1291;139649;-84
2023/03/22 08:23:11;;;;;;;37.40;23.10;;;;;;;11.24;100.00;100095.51;213383;1295;139747;-84
2023/03/22 08:28:13;;;;;;;40.10;23.60;;;;;;;11.32;100.00;100096.80;214125;1289;139611;-84
2023/03/22 08:33:14;;;;;;;35.60;23.30;;;;;;;11.35;100.00;100091.83;213462;1293;140954;-85
2023/03/22 08:38:15;;;;;;;39.80;24.60;;;;;;;11.45;100.00;100090.21;214051;1294;140137;-84
2023/03/22 08:43:15;;;;;;;38.90;23.10;;;;;;;11.52;100.00;100090.38;213561;1288;140304;-85
2023/03/22 08:48:17;;;;;;;39.20;23.30;;;;;;;11.56;100.00;100087.16;214025;1289;140249;-85
2023/03/22 08:53:18;;;;;;;33.90;20.30;;;;;;;11.65;100.00;100086.65;213243;1290;140062;-85
2023/03/22 08:58:19;;;;;;;37.20;23.60;;;;;;;11.79;100.00;100089.02;214081;1294;139331;-85
2023/03/22 09:03:19;;;;;;;37.80;23.30;;;;;;;11.89;100.00;100084.63;213551;1290;139601;-85
2023/03/22 09:08:20;;;;;;;35.60;22.40;;;;;;;11.96;100.00;100087.46;214144;1293;139949;-84
2023/03/22 09:13:20;;;;;;;37.70;23.50;;;;;;;11.99;100.00;100089.11;213685;1293;140330;-84
2023/03/22 09:18:23;;;;;;;35.20;22.70;;;;;;;12.03;100.00;100091.00;214188;1293;139281;-85
2023/03/22 09:23:23;;;;;;;34.40;22.20;;;;;;;12.10;100.00;100084.54;213989;1288;139967;-86
2023/03/22 09:28:24;;;;;;;36.30;21.70;;;;;;;12.19;100.00;100087.35;214437;1292;140919;-86
2023/03/22 09:33:24;;;;;;;38.80;21.50;;;;;;;12.19;100.00;100083.02;213958;1295;139814;-86
2023/03/22 09:38:26;;;;;;;29.90;19.20;;;;;;;12.33;100.00;100085.38;214131;1289;140085;-88
2023/03/22 09:43:34;;;;;;;28.60;17.90;;;;;;;12.44;100.00;100083.62;215134;1290;139794;-85
2023/03/22 09:48:40;;;;;;;28.80;17.20;;;;;;;12.55;100.00;100075.32;214177;1294;105952;-87
2023/03/22 09:53:41;;;;;;;29.90;18.50;;;;;;;12.69;100.00;100071.97;214153;1289;139711;-85
2023/03/22 09:58:48;;;;;;;25.20;16.90;;;;;;;12.89;100.00;100070.24;214344;1289;140145;-84
2023/03/22 10:04:04;;;;;;;30.00;17.00;;;;;;;13.03;100.00;100062.86;214424;1294;139709;-85
2023/03/22 10:09:27;;;;;;;28.00;16.80;;;;;;;13.30;99.93;100060.35;214062;1290;140290;-87
2023/03/22 10:14:39;;;;;;;28.70;16.30;;;;;;;13.34;98.99;100060.72;214537;1289;139655;-86
2023/03/22 10:19:48;;;;;;;27.60;17.60;;;;;;;13.44;99.42;100059.40;214046;1288;140019;-87
2023/03/22 10:24:51;;;;;;;26.20;16.50;;;;;;;13.58;99.01;100055.99;214204;1292;97998;-85
2023/03/22 10:29:57;;;;;;;24.40;16.70;;;;;;;13.80;98.77;100051.79;213571;1294;139645;-86
2023/03/22 10:34:58;;;;;;;21.80;14.30;;;;;;;13.90;97.07;100046.16;214185;1289;139053;-85
2023/03/22 10:40:05;;;;;;;25.80;15.60;;;;;;;14.08;97.12;100043.73;213590;1293;139764;-87
2023/03/22 10:45:13;;;;;;;22.80;15.40;;;;;;;14.22;95.83;100037.76;214116;1289;139568;-85
2023/03/22 10:50:31;;;;;;;27.10;16.10;;;;;;;14.36;95.05;100040.23;213634;1290;139839;-86
2023/03/22 10:55:32;;;;;;;24.40;14.70;;;;;;;14.41;94.10;100036.21;214397;1289;97950;-85
2023/03/22 11:00:32;;;;;;;23.80;15.90;;;;;;;14.52;93.95;100035.86;213517;1291;139242;-87
2023/03/22 11:05:33;;;;;;;23.50;14.90;;;;;;;14.59;93.08;100037.29;214167;1293;142133;-86
2023/03/22 11:10:33;;;;;;;26.50;16.30;;;;;;;14.56;92.43;100033.92;213774;1291;140049;-86
2023/03/22 11:15:37;;;;;;;24.80;17.40;;;;;;;14.54;92.03;100032.59;214129;1291;139233;-86
2023/03/22 11:20:40;;;;;;;22.80;15.20;;;;;;;14.51;91.63;100033.10;213522;1289;140062;-87
2023/03/22 11:25:46;;;;;;;21.20;15.30;;;;;;;14.48;90.87;100027.60;213908;1289;139675;-88
2023/03/22 11:31:07;;;;;;;21.60;14.60;;;;;;;14.55;91.18;100026.25;213861;1288;140030;-83
2023/03/22 11:36:17;;;;;;;21.30;15.40;;;;;;;14.69;91.26;100021.10;214217;1291;139106;-86
2023/03/22 11:41:23;;;;;;;21.30;14.80;;;;;;;14.88;90.79;100013.90;213495;1288;139772;-88
2023/03/22 11:46:24;;;;;;;20.50;14.30;;;;;;;15.04;89.70;100015.19;214024;1294;139188;-87
2023/03/22 11:51:32;;;;;;;22.50;15.30;;;;;;;15.11;89.53;100009.48;213442;1294;139785;-87
2023/03/22 11:56:33;;;;;;;22.80;14.00;;;;;;;15.25;88.47;100008.95;213846;1293;139784;-88
2023/03/22 12:01:42;;;;;;;21.70;13.10;;;;;;;15.32;87.33;100003.31;213595;1288;140026;-86
2023/03/22 12:06:43;;;;;;;23.30;13.30;;;;;;;15.40;87.38;99987.59;213980;1289;104348;-86
2023/03/22 12:11:48;;;;;;;19.70;13.30;;;;;;;15.52;86.63;99977.52;213409;1294;139887;-88
2023/03/22 12:16:53;;;;;;;19.70;12.60;;;;;;;15.68;86.51;99977.00;214038;1291;139313;-87
2023/03/22 12:21:54;;;;;;;19.50;12.50;;;;;;;15.85;86.24;99978.23;213612;1289;139630;-88
2023/03/22 12:26:59;;;;;;;19.40;12.80;;;;;;;16.01;85.67;99974.77;214031;1289;139211;-85
2023/03/22 12:32:14;;;;;;;18.00;11.00;;;;;;;16.18;85.10;99977.07;213542;1291;142498;-85
2023/03/22 12:37:23;;;;;;;20.20;10.90;;;;;;;16.17;82.92;99979.52;214024;1292;98024;-86
2023/03/22 12:42:30;;;;;;;16.10;10.80;;;;;;;16.05;82.84;99977.77;213411;1292;138807;-88
2023/03/22 12:47:41;;;;;;;16.40;11.10;;;;;;;16.00;82.78;99972.63;213778;1289;139293;-86
2023/03/22 12:52:48;;;;;;;17.50;11.10;;;;;;;16.02;82.94;99966.50;213489;1290;139108;-89
2023/03/22 12:57:51;;;;;;;18.10;10.70;;;;;;;15.96;82.61;99956.30;214076;1289;139211;-88
2023/03/22 13:03:00;;;;;;;17.70;11.20;;;;;;;15.85;83.00;99948.08;213577;1289;139176;-86
2023/03/22 13:08:04;;;;;;;20.30;11.20;;;;;;;15.84;83.05;99940.33;213896;1291;139932;-88
2023/03/22 13:13:19;;;;;;;18.80;12.30;;;;;;;15.80;83.03;99930.73;213659;1293;139719;-87
2023/03/22 13:18:44;;;;;;;16.40;10.90;;;;;;;15.76;82.88;99918.44;213949;1290;140072;-88
2023/03/22 13:24:19;;;;;;;17.40;11.60;;;;;;;15.75;82.60;99910.70;213603;1294;140578;-88
2023/03/22 13:29:32;;;;;;;18.60;11.00;;;;;;;15.79;81.64;99900.95;213601;1293;139443;-87
2023/03/22 13:34:51;;;;;;;18.50;10.60;;;;;;;15.85;81.90;99891.16;214259;1288;139303;-89
2023/03/22 13:39:53;;;;;;;18.30;10.90;;;;;;;15.90;81.75;99888.61;213595;1291;139537;-87
2023/03/22 13:44:58;;;;;;;14.90;9.60;;;;;;;15.96;81.59;99887.86;214078;1294;139630;-86
2023/03/22 13:50:07;;;;;;;18.00;9.50;;;;;;;16.02;80.75;99876.00;213770;1289;140793;-87
2023/03/22 13:56:00;;;;;;;14.40;9.00;;;;;;;16.00;79.01;99873.98;214355;1289;117190;-86
2023/03/22 14:01:03;;;;;;;14.30;9.00;;;;;;;15.96;79.94;99867.64;213592;1292;138895;-87
2023/03/22 14:06:23;;;;;;;13.60;8.40;;;;;;;16.02;79.29;99866.73;214259;1289;138762;-87
2023/03/22 14:11:45;;;;;;;17.00;9.00;;;;;;;16.00;78.35;99859.30;213791;1292;140191;-89
2023/03/22 14:16:49;;;;;;;15.10;8.30;;;;;;;16.00;78.99;99851.95;214206;1289;139102;-87
2023/03/22 14:21:54;;;;;;;12.60;6.30;;;;;;;16.02;78.80;99837.23;213628;1289;140125;-88
2023/03/22 14:26:57;;;;;;;10.90;6.70;;;;;;;16.04;76.62;99838.46;214282;1288;138805;-88
2023/03/22 14:32:01;;;;;;;14.70;7.20;;;;;;;16.03;75.35;99836.73;213687;1289;139576;-87
2023/03/22 14:37:04;;;;;;;10.40;6.10;;;;;;;15.97;74.67;99837.64;214042;1289;106496;-88
2023/03/22 14:42:07;;;;;;;11.80;6.80;;;;;;;15.92;75.01;99836.33;213643;1291;139163;-87
2023/03/22 14:47:27;;;;;;;14.00;7.20;;;;;;;15.91;75.32;99831.73;214264;1289;139650;-87
2023/03/22 14:52:31;;;;;;;11.40;6.20;;;;;;;15.95;75.21;99830.86;213887;1291;139360;-89
2023/03/22 14:57:36;;;;;;;12.80;6.10;;;;;;;15.97;75.04;99822.66;214293;1294;139332;-85
2023/03/22 15:02:40;;;;;;;11.90;6.70;;;;;;;15.94;74.56;99820.10;213737;1294;139319;-86
2023/03/22 15:07:53;;;;;;;11.60;6.80;;;;;;;15.87;75.10;99814.37;214361;1288;98868;-86
2023/03/22 15:12:56;;;;;;;13.50;7.10;;;;;;;15.83;75.65;99803.27;213746;1288;139124;-84
2023/03/22 15:17:58;;;;;;;14.00;7.10;;;;;;;15.78;75.94;99796.00;214293;1289;139694;-85
2023/03/22 15:23:11;;;;;;;13.40;7.60;;;;;;;15.75;76.04;99793.20;213830;1291;139728;-87
2023/03/22 15:28:16;;;;;;;17.50;7.40;;;;;;;15.71;75.40;99784.02;214272;1291;138992;-84
2023/03/22 15:33:26;;;;;;;11.90;5.90;;;;;;;15.67;75.35;99782.42;213845;1289;141215;-86
2023/03/22 15:38:40;;;;;;;12.80;6.10;;;;;;;15.64;74.70;99783.52;214189;1291;138864;-85
2023/03/22 15:43:40;;;;;;;12.20;5.50;;;;;;;15.60;74.51;99782.89;213920;1289;138462;-86
2023/03/22 15:48:44;;;;;;;14.00;5.80;;;;;;;15.56;73.81;99791.85;214494;1289;139037;-85
2023/03/22 15:53:47;;;;;;;10.40;4.80;;;;;;;15.52;73.75;99792.88;214287;1288;140160;-87
2023/03/22 15:58:58;;;;;;;12.80;6.20;;;;;;;15.48;73.57;99796.04;214201;1291;140578;-84
2023/03/22 16:04:17;;;;;;;10.20;5.30;;;;;;;15.45;73.67;99795.31;214730;1289;139030;-86
2023/03/22 16:09:18;;;;;;;13.40;5.90;;;;;;;15.39;73.58;99795.98;213505;1288;246555;-84
2023/03/22 16:14:19;;;;;;;15.70;7.20;;;;;;;15.34;73.94;99801.21;214022;1289;140493;-87
2023/03/22 16:19:19;;;;;;;17.70;6.60;;;;;;;15.27;73.62;99799.32;213745;1289;139616;-86
2023/03/22 16:24:20;;;;;;;16.20;6.10;;;;;;;15.21;73.82;99793.34;214189;1289;138792;-85
2023/03/22 16:29:22;;;;;;;19.60;7.80;;;;;;;15.16;73.79;99793.50;213909;1289;139633;-84
2023/03/22 16:34:22;;;;;;;14.40;7.00;;;;;;;15.12;74.00;99794.61;214298;1294;138823;-85
2023/03/22 16:39:23;;;;;;;12.10;5.90;;;;;;;15.06;73.69;99796.38;213830;1290;138853;-85
2023/03/22 16:44:24;;;;;;;14.10;5.70;;;;;;;15.01;73.84;99799.48;214128;1289;139421;-84
2023/03/22 16:49:24;;;;;;;11.40;5.30;;;;;;;14.92;73.93;99795.58;213731;1288;139146;-85
2023/03/22 16:54:27;;;;;;;11.20;5.60;;;;;;;14.84;74.00;99798.16;213956;1291;138985;-85
2023/03/22 16:59:28;;;;;;;12.30;6.10;;;;;;;14.77;74.27;99797.98;213745;1289;138834;-84
2023/03/22 17:04:28;;;;;;;17.60;6.40;;;;;;;14.69;74.53;99797.70;214183;1291;140155;-84
2023/03/22 17:09:28;;;;;;;18.70;10.10;;;;;;;14.60;74.87;99796.34;214008;1290;139257;-85
2023/03/22 17:14:29;;;;;;;20.80;10.70;;;;;;;14.51;75.23;99798.05;214737;1288;139698;-84
2023/03/22 17:19:30;;;;;;;17.20;8.60;;;;;;;14.42;75.29;99794.70;214477;1288;139719;-85
2023/03/22 17:24:31;;;;;;;16.00;7.10;;;;;;;14.32;75.87;99790.98;215036;1292;140589;-84
2023/03/22 17:29:32;;;;;;;13.80;7.60;;;;;;;14.21;76.40;99781.64;214452;1289;139637;-85
2023/03/22 17:34:35;;;;;;;19.00;9.10;;;;;;;14.09;76.87;99784.77;215012;1291;139308;-83
2023/03/22 17:39:37;;;;;;;20.50;8.60;;;;;;;14.00;76.93;99779.61;214187;1289;139615;-85
2023/03/22 17:44:39;;;;;;;18.10;8.60;;;;;;;13.91;77.04;99778.77;215999;1288;139305;-84
2023/03/22 17:49:40;;;;;;;22.00;9.70;;;;;;;13.81;77.43;99779.15;214147;1289;139285;-84
2023/03/22 17:54:41;;;;;;;16.50;9.80;;;;;;;13.70;77.95;99773.98;214674;1291;139251;-85
2023/03/22 17:59:42;;;;;;;20.30;11.50;;;;;;;13.57;77.80;99783.23;214027;1289;139457;-84
2023/03/22 18:04:42;;;;;;;18.20;11.10;;;;;;;13.45;78.18;99787.15;214731;1288;139094;-85
2023/03/22 18:09:43;;;;;;;21.30;11.80;;;;;;;13.33;78.61;99793.27;214413;1292;140379;-83
2023/03/22 18:14:43;;;;;;;16.60;9.40;;;;;;;13.20;79.10;99792.38;214852;1288;138984;-84
2023/03/22 18:19:44;;;;;;;18.20;9.10;;;;;;;13.08;80.25;99791.46;214338;1289;139905;-84
2023/03/22 18:24:44;;;;;;;15.50;9.70;;;;;;;12.92;81.01;99793.09;214603;1288;138643;-84
2023/03/22 18:29:45;;;;;;;20.50;10.30;;;;;;;12.72;81.76;99795.38;214167;1289;139400;-84
2023/03/22 18:34:45;;;;;;;20.60;11.40;;;;;;;12.51;82.46;99792.30;214594;1292;140132;-84
2023/03/22 18:39:46;;;;;;;19.40;10.90;;;;;;;12.32;83.22;99791.63;214229;1288;139419;-85
2023/03/22 18:44:46;;;;;;;22.50;11.30;;;;;;;12.16;83.92;99785.42;214559;1289;139582;-85
2023/03/22 18:49:47;;;;;;;24.40;14.70;;;;;;;12.00;84.41;99782.05;214339;1289;139780;-85
2023/03/22 18:54:47;;;;;;;31.00;18.00;;;;;;;11.83;85.17;99785.91;214799;1288;138878;-84
2023/03/22 18:59:48;;;;;;;29.00;16.40;;;;;;;11.66;85.75;99781.95;214039;1289;139491;-85
2023/03/22 19:04:49;;;;;;;27.80;16.20;;;;;;;11.53;86.45;99780.78;214632;1291;139931;-82
2023/03/22 19:09:50;;;;;;;28.20;15.20;;;;;;;11.46;87.15;99783.16;214077;1289;139427;-84
2023/03/22 19:14:50;;;;;;;31.30;18.30;;;;;;;11.33;87.42;99788.71;214648;1290;139454;-84
2023/03/22 19:19:51;;;;;;;34.10;17.90;;;;;;;11.18;88.16;99786.08;214223;1291;139385;-84
2023/03/22 19:24:53;;;;;;;38.40;19.80;;;;;;;11.06;88.54;99792.46;214642;1291;139023;-84
2023/03/22 19:29:53;;;;;;;45.10;24.10;;;;;;;10.92;89.14;99789.73;214219;1289;139877;-83
2023/03/22 19:34:54;;;;;;;47.60;26.00;;;;;;;10.74;89.89;99791.21;214698;1292;140768;-85
2023/03/22 19:39:54;;;;;;;47.80;26.10;;;;;;;10.65;90.52;99791.14;213811;1291;139756;-84
2023/03/22 19:44:55;;;;;;;46.80;24.50;;;;;;;10.55;91.00;99790.42;214332;1291;139586;-85
2023/03/22 19:49:55;;;;;;;44.40;24.70;;;;;;;10.46;91.27;99786.95;213991;1293;139044;-83
2023/03/22 19:54:56;;;;;;;40.70;23.60;;;;;;;10.36;91.59;99789.69;214839;1289;98785;-85
2023/03/22 19:59:57;;;;;;;55.80;29.60;;;;;;;10.21;91.43;99790.61;213825;1291;139147;-83
2023/03/22 20:04:57;;;;;;;67.80;34.80;;;;;;;10.04;92.02;99788.27;214240;1294;139021;-84
2023/03/22 20:09:58;;;;;;;60.40;32.10;;;;;;;9.92;92.79;99790.48;213631;1290;140518;-83
2023/03/22 20:14:59;;;;;;;54.80;29.70;;;;;;;9.81;93.30;99791.94;214222;1289;138815;-84
2023/03/22 20:19:59;;;;;;;63.90;34.20;;;;;;;9.70;93.64;99792.99;213639;1289;139523;-84
2023/03/22 20:25:00;;;;;;;57.60;30.60;;;;;;;9.60;94.12;99792.65;214295;1289;107173;-84
2023/03/22 20:30:00;;;;;;;52.70;29.20;;;;;;;9.55;94.74;99790.42;213794;1289;139623;-85
2023/03/22 20:35:01;;;;;;;53.20;28.90;;;;;;;9.48;95.29;99784.27;214355;1294;138631;-84
2023/03/22 20:40:06;;;;;;;46.60;25.50;;;;;;;9.43;95.74;99784.63;213783;1293;139444;-84
2023/03/22 20:45:07;;;;;;;44.40;24.70;;;;;;;9.40;96.04;99780.77;214153;1292;139222;-84
2023/03/22 20:50:10;;;;;;;47.60;25.80;;;;;;;9.37;96.49;99783.57;213567;1289;139669;-84
2023/03/22 20:55:11;;;;;;;49.00;26.30;;;;;;;9.33;96.61;99779.79;214265;1294;98465;-83
2023/03/22 21:00:14;;;;;;;45.60;25.50;;;;;;;9.31;96.89;99783.92;213532;1294;140236;-84
2023/03/22 21:05:15;;;;;;;49.00;25.30;;;;;;;9.28;97.18;99781.64;214086;1294;140130;-85
2023/03/22 21:10:17;;;;;;;46.10;25.00;;;;;;;9.24;97.47;99778.09;213715;1289;140255;-85
2023/03/22 21:15:18;;;;;;;45.10;26.40;;;;;;;9.21;97.64;99776.81;214676;1292;138919;-85
2023/03/22 21:20:19;;;;;;;44.40;25.30;;;;;;;9.17;98.03;99769.73;214351;1289;139512;-84
2023/03/22 21:25:19;;;;;;;52.50;27.40;;;;;;;9.12;98.22;99763.66;215498;1294;99033;-85
2023/03/22 21:30:19;;;;;;;48.80;27.10;;;;;;;9.08;98.23;99764.48;213798;1289;138804;-86
2023/03/22 21:35:20;;;;;;;49.60;27.60;;;;;;;9.01;98.85;99760.14;214540;1288;138496;-85
2023/03/22 21:40:20;;;;;;;55.90;29.00;;;;;;;8.96;98.90;99754.30;213675;1294;139820;-86
2023/03/22 21:45:21;;;;;;;48.60;27.50;;;;;;;8.91;99.33;99751.12;214246;1293;138740;-86
2023/03/22 21:50:21;;;;;;;49.00;27.30;;;;;;;8.89;99.55;99751.11;213830;1289;141636;-86
2023/03/22 21:55:23;;;;;;;51.80;26.90;;;;;;;8.89;99.67;99748.59;215155;1289;97905;-86
2023/03/22 22:00:28;;;;;;;47.20;26.70;;;;;;;8.88;99.83;99754.24;214454;1289;138524;-86
2023/03/22 22:05:28;;;;;;;45.30;24.00;;;;;;;8.89;99.89;99761.86;214844;1293;139791;-85
2023/03/22 22:10:30;;;;;;;41.50;23.80;;;;;;;8.89;99.99;99757.61;214069;1294;139363;-86
2023/03/22 22:15:32;;;;;;;47.20;26.40;;;;;;;8.95;99.98;99754.30;214387;1292;138966;-85
2023/03/22 22:20:33;;;;;;;44.70;24.20;;;;;;;9.04;100.00;99754.67;213422;1294;138932;-86
2023/03/22 22:25:35;;;;;;;37.90;22.10;;;;;;;9.10;100.00;99754.32;214252;1294;104102;-86
2023/03/22 22:30:36;;;;;;;39.50;22.10;;;;;;;9.16;99.98;99754.73;213520;1294;139473;-86
2023/03/22 22:35:37;;;;;;;38.70;19.60;;;;;;;9.23;100.00;99752.19;214073;1295;138511;-86
2023/03/22 22:40:42;;;;;;;37.70;19.80;;;;;;;9.36;100.00;99756.10;213514;1292;139125;-86